Temp: 4.3°C   Baro: 1017.1mb
  Wind: 0.0mph   Dir: NNW (342°)
  Rain: 0.0mm (0.0mm/hr)
  Solar: 0W/m2  Hum: 84%

Historic data

Bath Spa Weather Station Historical Data
Daily Summary for July 22, 2021 Units:  Metric    English   Both
Daily Weekly Monthly Yearly Custom
  High: Low: Average:
Temperature: 9.1 °C 1.6 °C 4.8 °C
Dew Point: 5.8 °C 0.6 °C 2.8 °C
Humidity: 91% 75.8% 84%
Wind Speed: 10.6km/h 0km/h 2.4km/h
Wind Gust: 24.1km/h - -
Wind- - NNE
Pressure: 1035.4 hPa 1027 hPa -
Precipitation: 0 mm    
Historical Graphs
 
 
Tabular Data for July 22, 2021
Time Temperature Dew Point Pressure Wind Wind Speed Wind Gust Humidity Rainfall Rate (Hourly) solar
00:04 3.4 °C 1.4 °C 1027 hPa NE 3.9 km/h 8 km/h 84% 0 mm 0 W/m2
00:09 3.3 °C 1.3 °C 1027 hPa NE 4.5 km/h 9.7 km/h 84% 0 mm 0 W/m2
00:14 3.3 °C 1.3 °C 1027 hPa NE 4 km/h 9.7 km/h 84% 0 mm 0 W/m2
00:19 3.3 °C 1.3 °C 1027 hPa NE 2.1 km/h 8 km/h 84% 0 mm 0 W/m2
00:24 3.3 °C 1.3 °C 1027 hPa NE 1.8 km/h 6.4 km/h 84% 0 mm 0 W/m2
00:29 3.3 °C 1.3 °C 1027 hPa NE 3.2 km/h 12.9 km/h 84% 0 mm 0 W/m2
00:34 3.3 °C 1.3 °C 1027.3 hPa NE 4.7 km/h 11.3 km/h 84% 0 mm 0 W/m2
00:39 3.2 °C 1.3 °C 1027.3 hPa NE 1.6 km/h 11.3 km/h 84.2% 0 mm 0 W/m2
00:44 3.2 °C 1.3 °C 1027.3 hPa NE 3.5 km/h 11.3 km/h 84.6% 0 mm 0 W/m2
00:49 3.2 °C 1.4 °C 1027.3 hPa NE 4.3 km/h 11.3 km/h 85% 0 mm 0 W/m2
00:54 3.2 °C 1.3 °C 1027.3 hPa NE 1.6 km/h 6.4 km/h 85% 0 mm 0 W/m2
00:59 3.1 °C 1.3 °C 1027.3 hPa NE 6 km/h 12.9 km/h 85% 0 mm 0 W/m2
01:04 3.1 °C 1.3 °C 1027.3 hPa NE 1.9 km/h 9.7 km/h 85% 0 mm 0 W/m2
01:09 3 °C 1.2 °C 1027.3 hPa NE 1 km/h 4.8 km/h 85% 0 mm 0 W/m2
01:14 2.9 °C 1.1 °C 1027.7 hPa NE 1 km/h 4.8 km/h 85% 0 mm 0 W/m2
01:19 2.8 °C 1 °C 1027.7 hPa NE 1.9 km/h 9.7 km/h 85% 0 mm 0 W/m2
01:24 2.8 °C 1 °C 1027.7 hPa NE 2.7 km/h 9.7 km/h 85% 0 mm 0 W/m2
01:29 2.8 °C 0.9 °C 1028 hPa NE 1.8 km/h 6.4 km/h 85% 0 mm 0 W/m2
01:34 2.7 °C 1.1 °C 1028 hPa NE 0.6 km/h 3.2 km/h 86% 0 mm 0 W/m2
01:39 2.6 °C 0.8 °C 1028 hPa NE 0.3 km/h 3.2 km/h 85% 0 mm 0 W/m2
01:44 2.4 °C 0.8 °C 1028 hPa NE 1 km/h 3.2 km/h 86% 0 mm 0 W/m2
01:49 2.4 °C 0.8 °C 1028 hPa NE 1.3 km/h 4.8 km/h 86% 0 mm 0 W/m2
01:54 2.4 °C 0.8 °C 1028 hPa NE 1.9 km/h 4.8 km/h 86% 0 mm 0 W/m2
01:59 2.3 °C 0.7 °C 1028 hPa NE 1 km/h 3.2 km/h 86% 0 mm 0 W/m2
02:04 2.3 °C 0.7 °C 1028 hPa NE 2.1 km/h 6.4 km/h 86% 0 mm 0 W/m2
02:09 2.4 °C 0.8 °C 1028 hPa NE 2.9 km/h 6.4 km/h 86% 0 mm 0 W/m2
02:14 2.4 °C 0.8 °C 1028.3 hPa NE 5.1 km/h 8 km/h 86% 0 mm 0 W/m2
02:19 2.4 °C 0.9 °C 1028.3 hPa NE 6 km/h 8 km/h 86.8% 0 mm 0 W/m2
02:24 2.4 °C 0.9 °C 1028.3 hPa NE 2.7 km/h 8 km/h 86.8% 0 mm 0 W/m2
02:29 2.3 °C 0.9 °C 1028.3 hPa NE 2.6 km/h 6.4 km/h 87% 0 mm 0 W/m2
02:34 2.3 °C 0.9 °C 1028.3 hPa NE 5.3 km/h 12.9 km/h 87% 0 mm 0 W/m2
02:39 2.2 °C 0.8 °C 1028.3 hPa NE 3.5 km/h 11.3 km/h 87% 0 mm 0 W/m2
02:43 2.2 °C 0.8 °C 1028.3 hPa NE 6.8 km/h 11.3 km/h 87% 0 mm 0 W/m2
02:49 2.2 °C 0.8 °C 1028.3 hPa NE 6.4 km/h 16.1 km/h 87% 0 mm 0 W/m2
02:54 2.3 °C 0.9 °C 1028.3 hPa NNE 5.3 km/h 11.3 km/h 87% 0 mm 0 W/m2
02:59 2.3 °C 0.9 °C 1028.3 hPa NNE 6 km/h 11.3 km/h 87% 0 mm 0 W/m2
03:04 2.3 °C 0.9 °C 1028.3 hPa NE 5.6 km/h 11.3 km/h 87% 0 mm 0 W/m2
03:09 2.4 °C 1 °C 1028.3 hPa NE 4.3 km/h 9.7 km/h 87% 0 mm 0 W/m2
03:14 2.4 °C 1 °C 1028.3 hPa NNE 5 km/h 11.3 km/h 87% 0 mm 0 W/m2
03:19 2.5 °C 1 °C 1028.7 hPa NNE 4.7 km/h 12.9 km/h 87% 0 mm 0 W/m2
03:24 2.6 °C 1.1 °C 1028.7 hPa NNE 5.1 km/h 11.3 km/h 87% 0 mm 0 W/m2
03:29 2.6 °C 1.1 °C 1028.7 hPa NNE 1.9 km/h 8 km/h 87% 0 mm 0 W/m2
03:34 2.6 °C 1.1 °C 1028.7 hPa NNE 3.9 km/h 11.3 km/h 87% 0 mm 0 W/m2
03:39 2.7 °C 1.2 °C 1028.7 hPa NNE 1.9 km/h 6.4 km/h 87% 0 mm 0 W/m2
03:44 2.6 °C 1.1 °C 1029 hPa NNE 1.6 km/h 8 km/h 87% 0 mm 0 W/m2
03:49 2.7 °C 1.2 °C 1029 hPa NNE 1.9 km/h 8 km/h 87% 0 mm 0 W/m2
03:54 2.6 °C 1.1 °C 1029 hPa NNE 2.1 km/h 6.4 km/h 87% 0 mm 0 W/m2
03:59 2.6 °C 1.1 °C 1029 hPa NNE 1 km/h 4.8 km/h 87% 0 mm 0 W/m2
04:04 2.6 °C 1.1 °C 1029.3 hPa NNE 5.8 km/h 8 km/h 87% 0 mm 0 W/m2
04:09 2.6 °C 1.1 °C 1029.3 hPa NNE 3.4 km/h 11.3 km/h 87% 0 mm 0 W/m2
04:14 2.7 °C 1.2 °C 1029.3 hPa NNE 5.5 km/h 11.3 km/h 87% 0 mm 0 W/m2
04:19 2.7 °C 1.2 °C 1029.3 hPa NNE 2.6 km/h 8 km/h 87% 0 mm 0 W/m2
04:24 2.7 °C 1.2 °C 1029.3 hPa Calm     87% 0 mm 0 W/m2
04:29 2.7 °C 1.2 °C 1029.3 hPa NNE 6.8 km/h 12.9 km/h 87% 0 mm 0 W/m2
04:34 2.7 °C 1.2 °C 1029.3 hPa NNE 4.2 km/h 11.3 km/h 87% 0 mm 0 W/m2
04:39 2.8 °C 1.3 °C 1029.3 hPa NNE 3.9 km/h 11.3 km/h 87% 0 mm 0 W/m2
04:44 2.8 °C 1.3 °C 1029.3 hPa NNE 1.3 km/h 8 km/h 87% 0 mm 0 W/m2
04:49 2.9 °C 1.4 °C 1029.7 hPa NNE 2.3 km/h 8 km/h 87% 0 mm 0 W/m2
04:54 2.9 °C 1.4 °C 1029.7 hPa NNE 4.2 km/h 9.7 km/h 87% 0 mm 0 W/m2
04:59 2.8 °C 1.3 °C 1029.7 hPa NNE 1 km/h 6.4 km/h 87% 0 mm 0 W/m2
05:04 2.9 °C 1.4 °C 1029.7 hPa NNE 5.6 km/h 14.5 km/h 87% 0 mm 0 W/m2
05:09 3 °C 1.5 °C 1029.7 hPa NNE 2.6 km/h 11.3 km/h 87% 0 mm 0 W/m2
05:14 3.1 °C 1.6 °C 1029.7 hPa NNE 2.6 km/h 12.9 km/h 87% 0 mm 0 W/m2
05:19 3.2 °C 1.6 °C 1029.7 hPa NNE 3.9 km/h 14.5 km/h 86.4% 0 mm 0 W/m2
05:24 3.3 °C 1.7 °C 1029.7 hPa NNE 6.1 km/h 16.1 km/h 86% 0 mm 0 W/m2
05:29 3.3 °C 1.8 °C 1029.7 hPa NNE 4.8 km/h 12.9 km/h 86% 0 mm 0 W/m2
05:34 3.3 °C 1.8 °C 1029.7 hPa NNE 2.1 km/h 8 km/h 86% 0 mm 0 W/m2
05:39 3.3 °C 1.7 °C 1029.7 hPa NNE 1.8 km/h 6.4 km/h 86% 0 mm 0 W/m2
05:44 3.3 °C 1.7 °C 1030 hPa NNE 2.7 km/h 6.4 km/h 85.6% 0 mm 0 W/m2
05:49 3.3 °C 1.4 °C 1030 hPa NNE 1.3 km/h 6.4 km/h 85% 0 mm 0 W/m2
05:54 3.2 °C 1.4 °C 1030 hPa NNE 2.4 km/h 6.4 km/h 85.4% 0 mm 0 W/m2
05:59 3.1 °C 1.4 °C 1030 hPa NNE 1.1 km/h 6.4 km/h 85.6% 0 mm 0 W/m2
06:04 3.1 °C 1.4 °C 1030 hPa NNE 0.3 km/h 4.8 km/h 86% 0 mm 0 W/m2
06:09 2.9 °C 1.3 °C 1030 hPa NNE 2.6 km/h 4.8 km/h 86% 0 mm 0 W/m2
06:14 2.9 °C 1.3 °C 1030.4 hPa NNE 3.9 km/h 9.7 km/h 86% 0 mm 0 W/m2
06:19 3.1 °C 1.4 °C 1030.4 hPa NNE 1.3 km/h 8 km/h 86% 0 mm 0 W/m2
06:24 2.9 °C 1.3 °C 1030.4 hPa NNE 2.1 km/h 8 km/h 86% 0 mm 0 W/m2
06:29 2.9 °C 1.3 °C 1030.4 hPa NNE 3.5 km/h 6.4 km/h 86% 0 mm 0 W/m2
06:34 2.9 °C 1.3 °C 1030.4 hPa NNE 3.5 km/h 8 km/h 86% 0 mm 0 W/m2
06:39 2.8 °C 1.2 °C 1030.4 hPa NNE 3.2 km/h 6.4 km/h 86% 0 mm 0 W/m2
06:44 2.8 °C 1.2 °C 1030.4 hPa NNE 2.3 km/h 6.4 km/h 86.2% 0 mm 0 W/m2
06:49 2.7 °C 1.2 °C 1030.4 hPa NNE 2.3 km/h 6.4 km/h 87% 0 mm 0 W/m2
06:54 2.6 °C 1.1 °C 1030.7 hPa NNE 2.7 km/h 8 km/h 87% 0 mm 0 W/m2
06:59 2.6 °C 1.1 °C 1030.7 hPa NNE 1.3 km/h 6.4 km/h 87% 0 mm 0 W/m2
07:04 2.6 °C 1.1 °C 1030.7 hPa NNE 1.9 km/h 4.8 km/h 87% 0 mm 0 W/m2
07:09 2.5 °C 1 °C 1031 hPa NNE 0.6 km/h 4.8 km/h 87% 0 mm 0 W/m2
07:14 2.4 °C 1 °C 1031 hPa Calm     87% 0 mm 0 W/m2
07:19 2.3 °C 0.9 °C 1031 hPa Calm     87% 0 mm 0 W/m2
07:24 2.3 °C 0.9 °C 1031 hPa Calm     87% 0 mm 0 W/m2
07:29 2.4 °C 1.1 °C 1031 hPa NNE 1.3 km/h 6.4 km/h 87.4% 0 mm 0 W/m2
07:34 2.3 °C 0.9 °C 1031.4 hPa NNE 2.9 km/h 8 km/h 87% 0 mm 0 W/m2
07:39 2.3 °C 1.1 °C 1031.4 hPa Calm     87.8% 0 mm 0 W/m2
07:44 2.4 °C 1.1 °C 1031.4 hPa Calm     88% 0 mm 5 W/m2
07:49 2.4 °C 1.1 °C 1031.4 hPa Calm     88% 0 mm 7 W/m2
07:54 2.5 °C 1.2 °C 1031.7 hPa Calm     88% 0 mm 9 W/m2
07:59 2.5 °C 1.2 °C 1031.7 hPa Calm     88% 0 mm 12 W/m2
08:04 2.5 °C 1.2 °C 1031.7 hPa Calm     88% 0 mm 14 W/m2
08:09 2.9 °C 1.7 °C 1031.7 hPa NNE 1 km/h 9.7 km/h 88.4% 0 mm 14 W/m2
08:14 3.1 °C 1.7 °C 1031.7 hPa Calm     88% 0 mm 16 W/m2
08:19 3.3 °C 2 °C 1031.7 hPa NE 0.6 km/h 12.9 km/h 88% 0 mm 18 W/m2
08:24 3.7 °C 2.3 °C 1032.1 hPa Calm   4.8 km/h 87.8% 0 mm 19 W/m2
08:29 3.7 °C 2.2 °C 1032.1 hPa Calm     86.6% 0 mm 19 W/m2
08:34 4 °C 2.4 °C 1032.1 hPa Calm     86.2% 0 mm 21 W/m2
08:39 4.3 °C 2.7 °C 1032.1 hPa NE 10.5 km/h 20.9 km/h 85.8% 0 mm 23 W/m2
08:44 4.3 °C 2.6 °C 1032.1 hPa NE 4 km/h 16.1 km/h 85% 0 mm 23 W/m2
08:49 4.5 °C 2.6 °C 1032.1 hPa NE 5.8 km/h 14.5 km/h 84.4% 0 mm 25 W/m2
08:54 4.7 °C 2.7 °C 1032.1 hPa NE 3.9 km/h 9.7 km/h 84% 0 mm 25 W/m2
08:59 4.9 °C 2.9 °C 1032.1 hPa NNE 7.1 km/h 17.7 km/h 84% 0 mm 26 W/m2
09:04 4.7 °C 2.6 °C 1032.1 hPa NNE 6.8 km/h 16.1 km/h 83.2% 0 mm 28 W/m2
09:09 4.7 °C 2.6 °C 1032.1 hPa NNE 6.6 km/h 16.1 km/h 83.4% 0 mm 32 W/m2
09:14 4.7 °C 2.7 °C 1032.1 hPa NE 8.7 km/h 17.7 km/h 84% 0 mm 37 W/m2
09:19 4.7 °C 2.7 °C 1032.1 hPa NE 6.6 km/h 14.5 km/h 84% 0 mm 42 W/m2
09:24 4.8 °C 2.7 °C 1032.1 hPa NE 9.3 km/h 17.7 km/h 83.4% 0 mm 49 W/m2
09:29 5.1 °C 3 °C 1032.1 hPa NE 5.3 km/h 11.3 km/h 83.6% 0 mm 58 W/m2
09:34 5 °C 2.8 °C 1032.1 hPa NE 9.7 km/h 14.5 km/h 83% 0 mm 67 W/m2
09:39 5.4 °C 3.2 °C 1032.4 hPa NNE 2.6 km/h 11.3 km/h 83% 0 mm 76 W/m2
09:44 5.9 °C 3.7 °C 1032.4 hPa NNE 2.3 km/h 12.9 km/h 82.4% 0 mm 86 W/m2
09:49 6.3 °C 3.8 °C 1032.4 hPa NE 5.3 km/h 12.9 km/h 81.8% 0 mm 98 W/m2
09:54 6.6 °C 4.1 °C 1032.4 hPa NE 3.4 km/h 11.3 km/h 81% 0 mm 109 W/m2
09:59 6.7 °C 4.1 °C 1032.4 hPa NE 4.3 km/h 12.9 km/h 80.6% 0 mm 118 W/m2
10:04 7 °C 4.3 °C 1032.4 hPa NE 4.7 km/h 11.3 km/h 80% 0 mm 128 W/m2
10:09 7.2 °C 4.4 °C 1032.7 hPa NE 2.7 km/h 8 km/h 79.6% 0 mm 135 W/m2
10:14 7.4 °C 4.6 °C 1032.7 hPa NE 5.1 km/h 11.3 km/h 79.6% 0 mm 144 W/m2
10:19 7.4 °C 4.4 °C 1032.7 hPa NE 10.6 km/h 22.5 km/h 78.6% 0 mm 156 W/m2
10:24 7.1 °C 4.1 °C 1032.7 hPa NE 6.8 km/h 14.5 km/h 79% 0 mm 178 W/m2
10:29 7.1 °C 4.3 °C 1032.7 hPa NE 5.3 km/h 14.5 km/h 79.6% 0 mm 197 W/m2
10:34 7.2 °C 4.4 °C 1032.7 hPa NE 3.2 km/h 9.7 km/h 79.4% 0 mm 253 W/m2
10:39 7 °C 4.1 °C 1032.7 hPa NNE 8 km/h 16.1 km/h 79% 0 mm 158 W/m2
10:44 7.2 °C 4.4 °C 1032.7 hPa NE 3.2 km/h 12.9 km/h 79.8% 0 mm 155 W/m2
10:49 7.4 °C 4.6 °C 1032.7 hPa NE 2.6 km/h 11.3 km/h 79.4% 0 mm 211 W/m2
10:54 7.7 °C 4.7 °C 1032.7 hPa East 5.5 km/h 20.9 km/h 78.4% 0 mm 211 W/m2
10:59 7.4 °C 4.3 °C 1032.7 hPa NE 9.2 km/h 22.5 km/h 77.6% 0 mm 220 W/m2
11:04 7.1 °C 4.1 °C 1032.7 hPa NNE 1.6 km/h 8 km/h 78.6% 0 mm 214 W/m2
11:09 7.8 °C 4.9 °C 1032.7 hPa ENE 5.1 km/h 14.5 km/h 79% 0 mm 218 W/m2
11:14 7.7 °C 4.5 °C 1032.4 hPa ENE 3.5 km/h 14.5 km/h 77.6% 0 mm 221 W/m2
11:19 7.7 °C 4.5 °C 1032.4 hPa ENE 0.6 km/h 11.3 km/h 77.8% 0 mm 225 W/m2
11:24 7.9 °C 4.8 °C 1032.7 hPa ENE 4.7 km/h 14.5 km/h 78% 0 mm 236 W/m2
11:29 8.1 °C 4.8 °C 1032.4 hPa Calm   11.3 km/h 76.8% 0 mm 234 W/m2
11:34 8.1 °C 4.9 °C 1032.4 hPa East 0.6 km/h 16.1 km/h 77.4% 0 mm 241 W/m2
11:39 8.2 °C 4.8 °C 1032.4 hPa ENE 1.6 km/h 16.1 km/h 76.6% 0 mm 241 W/m2
11:44 7.9 °C 4.8 °C 1032.4 hPa NE 1.9 km/h 8 km/h 77.8% 0 mm 243 W/m2
11:49 8.6 °C 5.3 °C 1032.4 hPa Calm   1.6 km/h 77.2% 0 mm 244 W/m2
11:54 8.1 °C 4.6 °C 1032.4 hPa NNE 1.4 km/h 11.3 km/h 76% 0 mm 248 W/m2
11:59 7.7 °C 4.6 °C 1032.4 hPa NNW 2.3 km/h 11.3 km/h 78.2% 0 mm 248 W/m2
12:04 7.8 °C 4.7 °C 1032.7 hPa NE 1.6 km/h 17.7 km/h 78% 0 mm 246 W/m2
12:09 7.9 °C 4.8 °C 1032.7 hPa NNE 6 km/h 17.7 km/h 78% 0 mm 248 W/m2
12:14 8.4 °C 5.2 °C 1032.7 hPa NE 0.3 km/h 11.3 km/h 77.6% 0 mm 246 W/m2
12:19 8.5 °C 5.3 °C 1032.7 hPa ENE 4.2 km/h 20.9 km/h 77.2% 0 mm 250 W/m2
12:24 9 °C 5.5 °C 1032.7 hPa ENE 10.3 km/h 20.9 km/h 76.2% 0 mm 250 W/m2
12:29 8.7 °C 5.2 °C 1032.7 hPa NE 1.9 km/h 16.1 km/h 75.8% 0 mm 250 W/m2
12:34 8.7 °C 5.3 °C 1032.7 hPa NE 3.5 km/h 8 km/h 76.6% 0 mm 244 W/m2
12:39 8.5 °C 5.3 °C 1032.7 hPa NE 2.3 km/h 11.3 km/h 77.4% 0 mm 244 W/m2
12:44 8.4 °C 5.1 °C 1032.4 hPa NNE 4.8 km/h 14.5 km/h 76.8% 0 mm 243 W/m2
12:49 8.2 °C 5 °C 1032.7 hPa NNE 1 km/h 6.4 km/h 77.2% 0 mm 239 W/m2
12:54 8.3 °C 5.2 °C 1032.4 hPa NNE 1 km/h 11.3 km/h 78% 0 mm 236 W/m2
12:59 8.6 °C 5.4 °C 1032.4 hPa Calm   11.3 km/h 77.4% 0 mm 234 W/m2
13:04 8.4 °C 5.2 °C 1032.4 hPa NNE 9 km/h 17.7 km/h 77.2% 0 mm 232 W/m2
13:09 8.3 °C 5.2 °C 1032.4 hPa NNE 1.3 km/h 12.9 km/h 78% 0 mm 227 W/m2
13:14 8.4 °C 5.3 °C 1032.4 hPa North 5.1 km/h 19.3 km/h 77.6% 0 mm 225 W/m2
13:19 8.6 °C 5.4 °C 1032.7 hPa NNE 4.2 km/h 14.5 km/h 77.4% 0 mm 218 W/m2
13:24 9.1 °C 5.8 °C 1032.7 hPa NNE 1 km/h 11.3 km/h 77.2% 0 mm 214 W/m2
13:29 8.7 °C 5.2 °C 1032.7 hPa NNE 2.9 km/h 11.3 km/h 76% 0 mm 199 W/m2
13:34 8.2 °C 4.8 °C 1032.7 hPa NNE 3.2 km/h 16.1 km/h 77% 0 mm 137 W/m2
13:39 7.8 °C 4.8 °C 1032.7 hPa NNE 2.3 km/h 17.7 km/h 78% 0 mm 197 W/m2
13:44 8 °C 5.1 °C 1032.7 hPa NE 1 km/h 17.7 km/h 78.6% 0 mm 192 W/m2
13:49 8.2 °C 5.2 °C 1032.7 hPa NE 7.7 km/h 16.1 km/h 78.3% 0 mm 179 W/m2
13:54 8.1 °C 5 °C 1032.7 hPa NE 3.2 km/h 16.1 km/h 78% 0 mm 174 W/m2
13:59 8.2 °C 5.1 °C 1032.7 hPa NNE 1.3 km/h 11.3 km/h 78% 0 mm 165 W/m2
14:04 8.2 °C 5.1 °C 1032.7 hPa NNE 5.8 km/h 14.5 km/h 78% 0 mm 160 W/m2
14:09 8.3 °C 5.2 °C 1032.7 hPa NE 4.7 km/h 16.1 km/h 78% 0 mm 151 W/m2
14:14 8.3 °C 5.2 °C 1032.7 hPa NE 2.9 km/h 12.9 km/h 78% 0 mm 146 W/m2
14:19 8.3 °C 5.2 °C 1032.7 hPa NNE 8.4 km/h 17.7 km/h 78% 0 mm 139 W/m2
14:24 8.3 °C 5.2 °C 1032.7 hPa NNE 0.3 km/h 12.9 km/h 78% 0 mm 128 W/m2
14:29 8.6 °C 5.6 °C 1032.7 hPa NNE 1.3 km/h 8 km/h 78.6% 0 mm 123 W/m2
14:34 8.6 °C 5.3 °C 1032.7 hPa NNE 2.6 km/h 11.3 km/h 77.4% 0 mm 116 W/m2
14:39 8.4 °C 5.3 °C 1032.7 hPa NNE 3.4 km/h 9.7 km/h 78% 0 mm 107 W/m2
14:44 8.1 °C 5.1 °C 1032.7 hPa NNE 3.9 km/h 17.7 km/h 78.4% 0 mm 100 W/m2
14:49 8.2 °C 5.3 °C 1032.7 hPa NNE 0.3 km/h 11.3 km/h 79% 0 mm 93 W/m2
14:54 8.2 °C 5.3 °C 1032.7 hPa NNE 0.6 km/h 9.7 km/h 79% 0 mm 83 W/m2
14:59 7.9 °C 5 °C 1032.7 hPa NNE 5.8 km/h 11.3 km/h 79% 0 mm 74 W/m2
15:04 7.8 °C 4.9 °C 1032.7 hPa NNE 3.9 km/h 11.3 km/h 79% 0 mm 65 W/m2
15:09 7.7 °C 5 °C 1032.7 hPa North 8.9 km/h 17.7 km/h 80% 0 mm 56 W/m2
15:14 7.6 °C 4.9 °C 1032.7 hPa North 7.7 km/h 16.1 km/h 80% 0 mm 49 W/m2
15:18 7.6 °C 4.9 °C 1032.7 hPa North 3.2 km/h 11.3 km/h 80% 0 mm 40 W/m2
15:24 7.6 °C 4.9 °C 1032.7 hPa North 2.1 km/h 17.7 km/h 80% 0 mm 33 W/m2
15:29 7.5 °C 4.8 °C 1032.7 hPa North 6.4 km/h 24.1 km/h 80.4% 0 mm 28 W/m2
15:34 7.4 °C 4.8 °C 1032.7 hPa North 5 km/h 24.1 km/h 80.8% 0 mm 23 W/m2
15:39 7.3 °C 4.7 °C 1032.7 hPa North 5.1 km/h 14.5 km/h 81% 0 mm 21 W/m2
15:44 7.2 °C 4.7 °C 1033.1 hPa North 5.5 km/h 14.5 km/h 81% 0 mm 18 W/m2
15:49 7.2 °C 4.6 °C 1033.1 hPa NNE 0.6 km/h 9.7 km/h 81% 0 mm 16 W/m2
15:54 7.1 °C 4.5 °C 1033.1 hPa NNE 2.6 km/h 11.3 km/h 81% 0 mm 14 W/m2
15:59 6.9 °C 4.4 °C 1033.1 hPa NNE 0.6 km/h 4.8 km/h 81.2% 0 mm 12 W/m2
16:04 6.8 °C 4.4 °C 1033.4 hPa Calm     81.8% 0 mm 11 W/m2
16:09 6.7 °C 4.3 °C 1033.4 hPa Calm     82% 0 mm 9 W/m2
16:14 6.6 °C 4.2 °C 1033.4 hPa Calm     82% 0 mm 7 W/m2
16:19 6.5 °C 4.1 °C 1033.4 hPa Calm     82% 0 mm 5 W/m2
16:24 6.4 °C 4 °C 1033.4 hPa Calm     82% 0 mm 5 W/m2
16:29 6.3 °C 4.1 °C 1033.4 hPa Calm     82.8% 0 mm 0 W/m2
16:34 6.2 °C 4.1 °C 1033.4 hPa NNE 1.9 km/h 8 km/h 83% 0 mm 0 W/m2
16:39 6.2 °C 3.9 °C 1033.4 hPa NNE 5.8 km/h 9.7 km/h 83% 0 mm 0 W/m2
16:44 6.1 °C 4 °C 1033.4 hPa NNE 3.2 km/h 9.7 km/h 83.4% 0 mm 0 W/m2
16:49 6.1 °C 4.1 °C 1033.4 hPa NNE 2.3 km/h 16.1 km/h 84% 0 mm 0 W/m2
16:54 6.1 °C 4.1 °C 1033.4 hPa NNE 1 km/h 9.7 km/h 84% 0 mm 0 W/m2
16:59 6.2 °C 4.2 °C 1033.7 hPa NNE 2.7 km/h 9.7 km/h 84% 0 mm 0 W/m2
17:04 6.2 °C 4.2 °C 1033.7 hPa NNE 3.9 km/h 9.7 km/h 84% 0 mm 0 W/m2
17:09 6.2 °C 4.2 °C 1033.7 hPa NNE 2.9 km/h 9.7 km/h 84% 0 mm 0 W/m2
17:14 6.3 °C 4.3 °C 1033.7 hPa NNE 0.6 km/h 8 km/h 84% 0 mm 0 W/m2
17:19 6.2 °C 4.2 °C 1033.7 hPa NNE 2.6 km/h 8 km/h 84% 0 mm 0 W/m2
17:24 6.2 °C 4.2 °C 1033.7 hPa NNE 1.6 km/h 9.7 km/h 84% 0 mm 0 W/m2
17:29 6.2 °C 4.2 °C 1033.7 hPa NNE 0.3 km/h 3.2 km/h 84% 0 mm 0 W/m2
17:34 6.2 °C 4.2 °C 1033.7 hPa Calm   3.2 km/h 84% 0 mm 0 W/m2
17:39 6.2 °C 4.2 °C 1033.7 hPa NNE 1 km/h 6.4 km/h 84% 0 mm 0 W/m2
17:44 6.2 °C 4.2 °C 1033.7 hPa Calm     84% 0 mm 0 W/m2
17:49 6.1 °C 4.1 °C 1033.7 hPa NNE 3.5 km/h 9.7 km/h 84% 0 mm 0 W/m2
17:54 6.1 °C 4.1 °C 1033.7 hPa NNE 0.3 km/h 9.7 km/h 84% 0 mm 0 W/m2
17:59 6.2 °C 4.2 °C 1033.7 hPa NNE 5.1 km/h 12.9 km/h 84% 0 mm 0 W/m2
18:04 6.2 °C 4.2 °C 1033.7 hPa NNE 5.1 km/h 12.9 km/h 84% 0 mm 0 W/m2
18:09 6.2 °C 4.2 °C 1033.7 hPa NNE 0.6 km/h 11.3 km/h 84% 0 mm 0 W/m2
18:14 6.2 °C 4.2 °C 1033.7 hPa NNE 3.4 km/h 9.7 km/h 84% 0 mm 0 W/m2
18:19 6.2 °C 4.2 °C 1033.7 hPa NNE 1.9 km/h 11.3 km/h 84% 0 mm 0 W/m2
18:24 6.2 °C 4.2 °C 1033.7 hPa NNE 2.6 km/h 9.7 km/h 84% 0 mm 0 W/m2
18:29 6.2 °C 4.2 °C 1033.7 hPa NNE 2.9 km/h 11.3 km/h 84% 0 mm 0 W/m2
18:34 6.2 °C 4.2 °C 1033.7 hPa NNE 1.4 km/h 9.7 km/h 84% 0 mm 0 W/m2
18:39 6 °C 3.9 °C 1033.7 hPa NNE 1 km/h 4.8 km/h 83.4% 0 mm 0 W/m2
18:44 5.8 °C 3.8 °C 1034.1 hPa Calm   9.7 km/h 84% 0 mm 0 W/m2
18:49 5.6 °C 3.6 °C 1034.1 hPa Calm     84% 0 mm 0 W/m2
18:54 5.4 °C 3.4 °C 1034.1 hPa Calm     84% 0 mm 0 W/m2
18:59 5.3 °C 3.5 °C 1034.1 hPa NNE 0.6 km/h 4.8 km/h 84.8% 0 mm 0 W/m2
19:04 5.3 °C 3.5 °C 1034.1 hPa Calm   4.8 km/h 85% 0 mm 0 W/m2
19:09 5.2 °C 3.4 °C 1034.1 hPa NNE 1 km/h 3.2 km/h 85% 0 mm 0 W/m2
19:14 5.2 °C 3.4 °C 1034.1 hPa Calm   4.8 km/h 85% 0 mm 0 W/m2
19:19 5.1 °C 3.3 °C 1034.1 hPa Calm   1.6 km/h 85% 0 mm 0 W/m2
19:24 5.1 °C 3.3 °C 1034.1 hPa NNE 1 km/h 4.8 km/h 85% 0 mm 0 W/m2
19:29 5.1 °C 3.4 °C 1034.1 hPa Calm   4.8 km/h 85.8% 0 mm 0 W/m2
19:34 5.1 °C 3.4 °C 1034.1 hPa Calm     86% 0 mm 0 W/m2
19:39 5.1 °C 3.4 °C 1034.1 hPa Calm   3.2 km/h 86% 0 mm 0 W/m2
19:44 5.2 °C 3.4 °C 1034.1 hPa NNE 1.3 km/h 8 km/h 86% 0 mm 0 W/m2
19:49 5.1 °C 3.4 °C 1034.1 hPa NNE 1 km/h 4.8 km/h 86% 0 mm 0 W/m2
19:54 4.8 °C 3.2 °C 1034.1 hPa Calm   4.8 km/h 86% 0 mm 0 W/m2
19:59 4.8 °C 3.1 °C 1034.1 hPa Calm   3.2 km/h 86% 0 mm 0 W/m2
20:04 4.7 °C 3.1 °C 1034.1 hPa Calm     86% 0 mm 0 W/m2
20:09 4.7 °C 3.1 °C 1034.1 hPa Calm     86% 0 mm 0 W/m2
20:14 4.6 °C 2.9 °C 1034.1 hPa Calm     86% 0 mm 0 W/m2
20:19 4.5 °C 2.9 °C 1034.1 hPa Calm   1.6 km/h 86.2% 0 mm 0 W/m2
20:24 4.3 °C 2.8 °C 1034.1 hPa Calm     86.6% 0 mm 0 W/m2
20:29 4.2 °C 2.7 °C 1034.1 hPa Calm     87% 0 mm 0 W/m2
20:34 4.1 °C 2.6 °C 1034.1 hPa Calm     87% 0 mm 0 W/m2
20:39 3.9 °C 2.4 °C 1034.4 hPa Calm     87% 0 mm 0 W/m2
20:44 3.8 °C 2.3 °C 1034.4 hPa Calm     87% 0 mm 0 W/m2
20:49 3.8 °C 2.3 °C 1034.4 hPa Calm     87% 0 mm 0 W/m2
20:54 3.8 °C 2.5 °C 1034.1 hPa Calm     88% 0 mm 0 W/m2
20:59 3.8 °C 2.5 °C 1034.1 hPa Calm     88% 0 mm 0 W/m2
21:04 3.8 °C 2.5 °C 1034.4 hPa NNE 1 km/h 4.8 km/h 88% 0 mm 0 W/m2
21:09 3.8 °C 2.5 °C 1034.4 hPa Calm     88% 0 mm 0 W/m2
21:14 3.7 °C 2.4 °C 1034.4 hPa Calm     88% 0 mm 0 W/m2
21:19 3.5 °C 2.2 °C 1034.4 hPa Calm     88% 0 mm 0 W/m2
21:24 3.4 °C 2.1 °C 1034.4 hPa Calm     88% 0 mm 0 W/m2
21:29 3.3 °C 2.1 °C 1034.4 hPa Calm     88% 0 mm 0 W/m2
21:34 3.3 °C 2.1 °C 1034.4 hPa Calm   3.2 km/h 88.4% 0 mm 0 W/m2
21:39 3.2 °C 2.1 °C 1034.4 hPa Calm     89% 0 mm 0 W/m2
21:44 3.2 °C 2.1 °C 1034.4 hPa Calm     89% 0 mm 0 W/m2
21:49 3.2 °C 2.1 °C 1034.8 hPa Calm   1.6 km/h 89% 0 mm 0 W/m2
21:54 3.1 °C 2 °C 1034.8 hPa Calm   1.6 km/h 89% 0 mm 0 W/m2
21:59 3.1 °C 2 °C 1034.8 hPa Calm     89% 0 mm 0 W/m2
22:04 3 °C 1.9 °C 1034.8 hPa Calm     89% 0 mm 0 W/m2
22:09 2.9 °C 1.8 °C 1034.8 hPa Calm     89% 0 mm 0 W/m2
22:14 2.9 °C 1.8 °C 1034.8 hPa Calm     89% 0 mm 0 W/m2
22:19 2.9 °C 1.9 °C 1034.8 hPa Calm     89.6% 0 mm 0 W/m2
22:24 2.9 °C 1.8 °C 1034.8 hPa Calm     89.2% 0 mm 0 W/m2
22:29 2.9 °C 1.9 °C 1034.8 hPa Calm     90% 0 mm 0 W/m2
22:34 2.9 °C 1.9 °C 1034.8 hPa Calm     90% 0 mm 0 W/m2
22:39 2.9 °C 1.9 °C 1035.1 hPa Calm     90% 0 mm 0 W/m2
22:44 2.7 °C 1.7 °C 1035.1 hPa Calm     90% 0 mm 0 W/m2
22:49 2.4 °C 1.3 °C 1035.1 hPa Calm     89.6% 0 mm 0 W/m2
22:54 2.2 °C 1.2 °C 1035.1 hPa Calm     90% 0 mm 0 W/m2
22:59 2.2 °C 1.2 °C 1035.1 hPa Calm     90% 0 mm 0 W/m2
23:04 2.1 °C 1.1 °C 1035.1 hPa Calm     90% 0 mm 0 W/m2
23:09 2 °C 1 °C 1035.1 hPa Calm     90% 0 mm 0 W/m2
23:14 1.8 °C 0.8 °C 1035.1 hPa Calm     90% 0 mm 0 W/m2
23:19 1.7 °C 0.7 °C 1035.1 hPa Calm     90% 0 mm 0 W/m2
23:24 1.7 °C 0.7 °C 1035.1 hPa Calm     90% 0 mm 0 W/m2
23:29 1.7 °C 0.7 °C 1035.1 hPa Calm     90% 0 mm 0 W/m2
23:34 1.7 °C 0.7 °C 1035.1 hPa Calm     90% 0 mm 0 W/m2
23:39 1.7 °C 0.7 °C 1035.1 hPa Calm     90.2% 0 mm 0 W/m2
23:44 1.6 °C 0.6 °C 1035.4 hPa Calm     90% 0 mm 0 W/m2
23:49 1.6 °C 0.7 °C 1035.4 hPa Calm   1.6 km/h 90.8% 0 mm 0 W/m2
23:54 1.6 °C 0.8 °C 1035.4 hPa Calm     91% 0 mm 0 W/m2
23:59 1.7 °C 0.8 °C 1035.4 hPa Calm     91% 0 mm 0 W/m2
Bath Spa Weather
Compliments of Weather Underground - 2 mb